Flight Track Log - Related Links

Times and Time Zones

All times are in EDT time to prevent confusion due to time zone crossing. See the UAL262 flight status page for this flight to view local times or setup timezone preferences in your user account.

Time Position Orientation Groundspeed Altitude Reporting Facility
EDT Latitude Longitude Course Direction KTS MPH feet Rate Location/Type
Wed 04:42:15 AM 47.4314 -122.3125 179° South 165 190 1,300  Level Seattle Center
Wed 04:43:22 AM 47.3733 -122.3117 179° South 184 212 3,100 1,593 Climbing Seattle Center
Wed 04:44:08 AM 47.3256 -122.2953 167° South 235 270 4,300 2,264 Climbing Seattle Center
Wed 04:45:08 AM 47.3283 -122.1936 88° East 268 308 7,100 2,750 Climbing Seattle Center
Wed 04:46:08 AM 47.3500 -122.0858 73° East 276 318 9,800 1,700 Climbing Seattle Center
Wed 04:47:08 AM 47.3772 -121.9642 72° East 327 376 10,500 950 Climbing Seattle Center
Wed 04:48:08 AM 47.4094 -121.8147 72° East 382 440 11,700 1,600 Climbing Seattle Center
Wed 04:49:08 AM 47.4286 -121.6542 80° East 397 457 13,700 1,785 Climbing Seattle Center
Wed 04:50:09 AM 47.4161 -121.4897 96° East 401 461 15,300 1,686 Climbing Seattle Center
Wed 04:51:09 AM 47.3706 -121.3306 113° Southeast 421 484 17,100 1,600 Climbing Seattle Center
Wed 04:52:09 AM 47.3258 -121.1831 114° Southeast 420 483 18,500 1,500 Climbing Seattle Center
Wed 04:53:09 AM 47.2850 -121.0208 110° East 426 490 20,100 1,300 Climbing Seattle Center
Wed 04:54:09 AM 47.2969 -120.8297 85° East 446 513 21,100 1,100 Climbing Seattle Center
Wed 04:55:09 AM 47.3067 -120.6436 86° East 454 522 22,300 1,100 Climbing Seattle Center
Wed 04:56:09 AM 47.3186 -120.4564 85° East 460 529 23,300 1,636 Climbing Seattle Center
Wed 04:57:10 AM 47.3239 -120.2742 87° East 448 516 25,600 2,281 Climbing Seattle Center
Wed 04:58:10 AM 47.3322 -120.1069 86° East 413 475 27,900 1,750 Climbing Seattle Center
Wed 04:59:10 AM 47.3408 -119.9383 86° East 413 475 29,100 1,250 Climbing Seattle Center
Wed 05:00:10 AM 47.3483 -119.7753 86° East 402 463 30,400 1,300 Climbing Seattle Center
Wed 05:01:10 AM 47.3547 -119.6142 87° East 397 457 31,700 1,250 Climbing Seattle Center
Wed 05:02:10 AM 47.3622 -119.4558 86° East 389 448 32,900 800 Climbing Seattle Center
Wed 05:03:10 AM 47.3692 -119.2972 86° East 389 448 33,300 550 Climbing Seattle Center
Wed 05:04:10 AM 47.3756 -119.1364 87° East 393 452 34,000 600 Climbing Seattle Center
Wed 05:05:10 AM 47.3808 -118.9728 87° East 399 459 34,500 397 Climbing Seattle Center
Wed 05:06:11 AM 47.3872 -118.8078 87° East 405 466 34,800 248 Climbing Seattle Center
Wed 05:07:11 AM 47.3931 -118.6414 87° East 407 468 35,000 50 Climbing Seattle Center
Wed 05:08:11 AM 47.3983 -118.4792 87° East 399 459 34,900  Descending Seattle Center
Wed 05:09:11 AM 47.4053 -118.3158 86° East 399 459 35,000 50 Climbing Seattle Center
Wed 05:10:11 AM 47.4097 -118.1500 88° East 405 466 35,000 -50 Level Seattle Center
Wed 05:11:11 AM 47.4147 -117.9858 87° East 403 464 34,900  Descending Seattle Center
Wed 05:12:11 AM 47.4194 -117.8233 87° East 399 459 35,000  Climbing Seattle Center
Wed 05:13:11 AM 47.4247 -117.6642 87° East 392 451 34,900 -50 Descending Seattle Center
Wed 05:14:11 AM 47.4286 -117.5086 88° East 383 441 34,900  Level Seattle Center
Wed 05:15:11 AM 47.4328 -117.3558 88° East 377 434 34,900  Level Seattle Center
Wed 05:16:12 AM 47.4342 -117.2000 89° East 384 442 34,900  Level Seattle Center
Wed 05:17:12 AM 47.4281 -117.0444 93° East 389 448 34,900 50 Level Seattle Center
Wed 05:18:12 AM 47.4247 -116.8861 92° East 393 452 35,000  Climbing Seattle Center
Wed 05:19:12 AM 47.4189 -116.7233 93° East 401 461 34,900  Descending Seattle Center
Wed 05:20:12 AM 47.4139 -116.5553 92° East 410 472 35,000 50 Climbing Seattle Center
Wed 05:21:12 AM 47.4094 -116.3828 92° East 420 483 35,000 -50 Level Seattle Center
Wed 05:22:12 AM 47.4053 -116.2069 92° East 426 490 34,900 -50 Descending Seattle Center
Wed 05:23:12 AM 47.4033 -116.0314 91° East 430 495 34,900 50 Level Seattle Center
Wed 05:24:12 AM 47.3997 -115.8142 91° East 439 505 35,000 50 Climbing Seattle Center
Wed 05:25:12 AM 47.3975 -115.6375 91° East 439 505 35,000 -50 Level Seattle Center
Wed 05:26:13 AM 47.4011 -115.4550 88° East 444 511 34,900 -50 Descending Seattle Center
Wed 05:27:13 AM 47.4025 -115.2761 89° East 439 505 34,900 50 Level Seattle Center
Wed 05:28:13 AM 47.4044 -115.1011 89° East 432 497 35,000  Climbing Seattle Center
Wed 05:29:13 AM 47.4067 -114.9275 89° East 427 491 34,900 -49 Descending Seattle Center
Wed 05:30:15 AM 47.4072 -114.7494 90° East 433 498 34,900  Level Salt Lake Center
Wed 05:31:13 AM 47.4081 -114.5733 90° East 433 498 34,900  Level Seattle Center
Wed 05:32:13 AM 47.4086 -114.3967 90° East 434 499 34,900  Level Seattle Center
Wed 05:33:13 AM 47.4097 -114.2203 89° East 434 499 34,900  Level Seattle Center
Wed 05:34:13 AM 47.4092 -114.0433 90° East 434 499 34,900  Level Seattle Center
Wed 05:35:13 AM 47.4094 -113.8650 90° East 437 503 34,900 50 Level Seattle Center
Wed 05:36:14 AM 47.4094 -113.6839 90° East 442 509 35,000 48 Climbing Seattle Center
Wed 05:37:17 AM 47.4092 -113.5031 90° East 444 511 35,000 -49 Level Salt Lake Center
Wed 05:38:17 AM 47.4081 -113.3225 90° East 443 510 34,900  Descending Salt Lake Center
Wed 05:39:17 AM 47.4069 -113.1425 90° East 441 507 35,000  Climbing Salt Lake Center
Wed 05:40:17 AM 47.4050 -112.9617 91° East 442 509 34,900 -50 Descending Salt Lake Center
Wed 05:41:17 AM 47.4031 -112.7561 91° East 443 510 34,900  Level Salt Lake Center
Wed 05:42:18 AM 47.4017 -112.5758 91° East 442 509 34,900  Level Salt Lake Center
Wed 05:43:18 AM 47.3983 -112.3933 91° East 445 512 34,900  Level Salt Lake Center
Wed 05:44:18 AM 47.3964 -112.2111 91° East 447 514 34,900 50 Level Salt Lake Center
Wed 05:45:18 AM 47.3931 -112.0278 91° East 450 518 35,000  Climbing Salt Lake Center
Wed 05:46:19 AM 47.3897 -111.8450 91° East 449 517 34,900 -50 Descending Salt Lake Center
Wed 05:47:19 AM 47.3869 -111.6639 91° East 447 514 34,900  Level Salt Lake Center
Wed 05:48:19 AM 47.3825 -111.4819 92° East 449 517 34,900  Level Salt Lake Center
Wed 05:49:19 AM 47.3783 -111.3008 92° East 450 518 34,900  Level Salt Lake Center
Wed 05:50:19 AM 47.3742 -111.1192 92° East 452 520 34,900  Level Salt Lake Center
Wed 05:51:20 AM 47.3703 -110.9367 92° East 452 520 34,900 50 Level Salt Lake Center
Wed 05:52:20 AM 47.3650 -110.7528 92° East 453 521 35,000  Climbing Salt Lake Center
Wed 05:53:20 AM 47.3594 -110.5675 92° East 454 522 34,900 -50 Descending Salt Lake Center
Wed 05:54:20 AM 47.3542 -110.3806 92° East 458 527 34,900  Level Salt Lake Center
Wed 05:55:21 AM 47.3472 -110.1928 93° East 461 531 34,900  Level Salt Lake Center
Wed 05:56:21 AM 47.3406 -110.0053 93° East 460 529 34,900  Level Salt Lake Center
Wed 05:57:21 AM 47.3342 -109.8186 93° East 459 528 34,900  Level Salt Lake Center
Wed 05:58:21 AM 47.3272 -109.6292 93° East 463 533 34,900  Level Salt Lake Center
Wed 05:59:22 AM 47.3192 -109.4392 94° East 466 536 34,900  Level Salt Lake Center
Wed 06:00:22 AM 47.3111 -109.2500 94° East 465 535 34,900  Level Salt Lake Center
Wed 06:01:22 AM 47.3036 -109.0639 93° East 459 528 34,900  Level Salt Lake Center
Wed 06:02:22 AM 47.2961 -108.8786 93° East 456 525 34,900  Level Salt Lake Center
Wed 06:03:23 AM 47.2886 -108.6917 93° East 458 527 34,900  Level Salt Lake Center
Wed 06:04:23 AM 47.2822 -108.5042 93° East 460 529 34,900 50 Level Salt Lake Center
Wed 06:05:23 AM 47.2697 -108.2781 95° East 462 532 35,000 50 Climbing Salt Lake Center
Wed 06:06:23 AM 47.2603 -108.0897 94° East 463 533 35,000  Level Salt Lake Center
Wed 06:07:24 AM 47.2497 -107.9008 95° East 464 534 35,000 -50 Level Salt Lake Center
Wed 06:08:24 AM 47.2403 -107.7131 94° East 463 533 34,900 -50 Descending Salt Lake Center
Wed 06:09:24 AM 47.2278 -107.5247 96° East 464 534 34,900  Level Salt Lake Center
Wed 06:10:24 AM 47.2200 -107.3506 94° East 467 537 34,900  Level Salt Lake Center
Wed 06:11:25 AM 47.2061 -107.1617 96° East 467 537 34,900  Level Salt Lake Center
Wed 06:12:25 AM 47.1953 -106.9725 95° East 467 537 34,900  Level Salt Lake Center
Wed 06:13:25 AM 47.1836 -106.7817 95° East 470 541 34,900  Level Salt Lake Center
Wed 06:14:25 AM 47.1717 -106.5900 95° East 472 543 34,900  Level Salt Lake Center
Wed 06:15:26 AM 47.1569 -106.3964 96° East 475 547 34,900  Level Salt Lake Center
Wed 06:16:26 AM 47.1433 -106.2031 96° East 477 549 34,900  Level Salt Lake Center
Wed 06:17:26 AM 47.1300 -106.0103 96° East 477 549 34,900  Level Salt Lake Center
Wed 06:18:27 AM 47.1175 -105.8161 95° East 478 550 34,900  Level Salt Lake Center
Wed 06:19:27 AM 47.1036 -105.6228 96° East 479 551 34,900 50 Level Salt Lake Center
Wed 06:20:27 AM 47.0889 -105.4297 96° East 478 550 35,000 50 Climbing Salt Lake Center
Wed 06:21:27 AM 47.0747 -105.2364 96° East 478 550 35,000 -50 Level Salt Lake Center
Wed 06:22:28 AM 47.0603 -105.0428 96° East 479 551 34,900 -50 Descending Salt Lake Center
Wed 06:23:28 AM 47.0444 -104.8497 97° East 480 552 34,900 50 Level Salt Lake Center
Wed 06:24:28 AM 47.0267 -104.6178 96° East 481 554 35,000  Climbing Salt Lake Center
Wed 06:25:28 AM 47.0108 -104.4242 97° East 481 554 34,900 -50 Descending Salt Lake Center
Wed 06:26:29 AM 46.9942 -104.2317 97° East 481 554 34,900  Level Salt Lake Center
Wed 06:27:29 AM 46.9772 -104.0389 97° East 481 554 34,900  Level Salt Lake Center
Wed 06:28:29 AM 46.9608 -103.8464 97° East 481 554 34,900  Level Salt Lake Center
Wed 06:29:30 AM 46.9439 -103.6531 97° East 481 554 34,900  Level Salt Lake Center
Wed 06:30:04 AM 46.9356 -103.5392 96° East 480 552 34,900  Level Minneapolis Center
Wed 06:31:04 AM 46.9178 -103.3486 98° East 478 550 34,900  Level Minneapolis Center
Wed 06:32:05 AM 46.8992 -103.1569 98° East 479 551 34,900  Level Minneapolis Center
Wed 06:33:05 AM 46.8811 -102.9644 98° East 479 551 34,900  Level Minneapolis Center
Wed 06:34:06 AM 46.8625 -102.7700 98° East 484 557 34,900  Level Minneapolis Center
Wed 06:35:06 AM 46.8369 -102.5789 101° East 484 557 34,900  Level Minneapolis Center
Wed 06:36:07 AM 46.8103 -102.3869 101° East 484 557 34,900  Level Minneapolis Center
Wed 06:37:07 AM 46.7836 -102.1961 101° East 484 557 34,900  Level Minneapolis Center
Wed 06:38:08 AM 46.7567 -102.0042 102° East 484 557 34,900  Level Minneapolis Center
Wed 06:39:08 AM 46.7283 -101.8122 102° East 485 558 34,900 50 Level Minneapolis Center
Wed 06:40:09 AM 46.6975 -101.6178 103° East 488 562 35,000 50 Climbing Minneapolis Center
Wed 06:41:09 AM 46.6667 -101.4244 103° East 489 563 35,000  Level Minneapolis Center
Wed 06:42:10 AM 46.6400 -101.2214 101° East 495 570 35,000  Level Minneapolis Center
Wed 06:43:10 AM 46.6158 -101.0633 102° East 500 575 35,000  Level Minneapolis Center
Wed 06:44:11 AM 46.5792 -100.8303 103° East 495 570 35,000 -50 Level Minneapolis Center
Wed 06:45:11 AM 46.5478 -100.6364 103° East 494 568 34,900  Descending Minneapolis Center
Wed 06:46:12 AM 46.5167 -100.4386 103° East 498 573 35,000 50 Climbing Minneapolis Center
Wed 06:47:12 AM 46.4850 -100.2411 103° East 501 577 35,000  Level Minneapolis Center
Wed 06:48:13 AM 46.4539 -100.0408 103° East 506 582 35,000  Level Minneapolis Center
Wed 06:49:14 AM 46.4208 -99.8414 103° East 507 583 35,000  Level Minneapolis Center
Wed 06:50:14 AM 46.3869 -99.6422 104° East 508 585 35,000  Level Minneapolis Center
Wed 06:51:15 AM 46.3542 -99.4411 103° East 511 588 35,000 -50 Level Minneapolis Center
Wed 06:52:15 AM 46.3172 -99.2256 104° East 512 589 34,900 -50 Descending Minneapolis Center
Wed 06:53:16 AM 46.2831 -99.0256 104° East 513 590 34,900  Level Minneapolis Center
Wed 06:54:17 AM 46.2481 -98.8272 104° East 513 590 34,900  Level Minneapolis Center
Wed 06:55:17 AM 46.2139 -98.6300 104° East 512 589 34,900  Level Minneapolis Center
Wed 06:56:18 AM 46.1783 -98.4303 104° East 514 592 34,900  Level Minneapolis Center
Wed 06:57:18 AM 46.1419 -98.2292 105° East 518 596 34,900  Level Minneapolis Center
Wed 06:58:19 AM 46.1053 -98.0289 105° East 521 600 34,900  Level Minneapolis Center
Wed 06:59:20 AM 46.0683 -97.8269 105° East 524 603 34,900  Level Minneapolis Center
Wed 07:00:20 AM 46.0233 -97.5858 105° East 522 601 34,900  Level Minneapolis Center
Wed 07:01:21 AM 45.9856 -97.3853 105° East 523 602 34,900 49 Level Minneapolis Center
Wed 07:02:22 AM 45.9483 -97.1853 105° East 522 601 35,000  Climbing Minneapolis Center
Wed 07:03:22 AM 45.9092 -96.9856 106° East 522 601 34,900  Descending Minneapolis Center
Wed 07:04:23 AM 45.8728 -96.8017 106° East 521 600 35,000 50 Climbing Minneapolis Center
Wed 07:05:23 AM 45.8342 -96.6025 105° East 520 598 35,000  Level Minneapolis Center
Wed 07:06:24 AM 45.7958 -96.4031 105° East 520 598 35,000  Level Minneapolis Center
Wed 07:07:25 AM 45.7564 -96.2053 106° East 517 595 35,000  Level Minneapolis Center
Wed 07:08:25 AM 45.7158 -96.0086 106° East 516 594 35,000  Level Minneapolis Center
Wed 07:09:26 AM 45.6669 -95.7686 106° East 521 600 35,000  Level Minneapolis Center
Wed 07:10:27 AM 45.6267 -95.5697 106° East 522 601 35,000  Level Minneapolis Center
Wed 07:11:28 AM 45.5856 -95.3708 106° East 522 601 35,000  Level Minneapolis Center
Wed 07:12:28 AM 45.5431 -95.1722 107° East 523 602 35,000  Level Minneapolis Center
Wed 07:13:29 AM 45.5081 -95.0058 107° East 525 604 35,000  Level Minneapolis Center
Wed 07:14:30 AM 45.4575 -94.7697 107° East 521 600 35,000  Level Minneapolis Center
Wed 07:15:31 AM 45.4147 -94.5744 107° East 520 598 35,000  Level Minneapolis Center
Wed 07:16:32 AM 45.3728 -94.3806 107° East 516 594 35,000  Level Minneapolis Center
Wed 07:17:32 AM 45.3294 -94.1856 107° East 518 596 35,000  Level Minneapolis Center
Wed 07:18:33 AM 45.2869 -93.9919 107° East 516 594 35,000  Level Minneapolis Center
Wed 07:19:34 AM 45.2439 -93.7992 108° East 515 593 35,000  Level Minneapolis Center
Wed 07:20:35 AM 45.1997 -93.6078 108° East 512 589 35,000  Level Minneapolis Center
Wed 07:21:36 AM 45.1572 -93.4172 107° East 507 583 35,000  Level Minneapolis Center
Wed 07:22:37 AM 45.1108 -93.2283 109° East 504 580 35,000 -49 Level Minneapolis Center
Wed 07:23:38 AM 45.0636 -93.0367 109° East 509 586 34,900  Descending Minneapolis Center
Wed 07:24:39 AM 45.0158 -92.8439 109° East 514 592 35,000 49 Climbing Minneapolis Center
Wed 07:25:40 AM 44.9675 -92.6544 110° East 512 589 35,000  Level Minneapolis Center
Wed 07:26:41 AM 44.9206 -92.4678 109° East 505 581 35,000  Level Minneapolis Center
Wed 07:27:42 AM 44.8719 -92.2814 110° East 506 582 35,000  Level Minneapolis Center
Wed 07:28:43 AM 44.8256 -92.0947 109° East 506 582 35,000  Level Minneapolis Center
Wed 07:29:43 AM 44.7769 -91.9103 110° East 506 582 35,000  Level Minneapolis Center
Wed 07:30:44 AM 44.7267 -91.7261 111° Southeast 505 581 35,000  Level Minneapolis Center
Wed 07:31:45 AM 44.6592 -91.5097 114° Southeast 504 580 35,000  Level Minneapolis Center
Wed 07:32:47 AM 44.6022 -91.3303 114° Southeast 504 580 35,000  Level Minneapolis Center
Wed 07:33:48 AM 44.5456 -91.1519 114° Southeast 504 580 35,000  Level Minneapolis Center
Wed 07:34:49 AM 44.4911 -90.9733 113° Southeast 502 578 35,000  Level Minneapolis Center
Wed 07:35:50 AM 44.4400 -90.8106 114° Southeast 500 575 35,000  Level Minneapolis Center
Wed 07:36:51 AM 44.3728 -90.5992 114° Southeast 508 585 35,000  Level Minneapolis Center
Wed 07:37:52 AM 44.3158 -90.4203 114° Southeast 505 581 35,000  Level Minneapolis Center
Wed 07:38:53 AM 44.2572 -90.2397 114° Southeast 508 585 35,000  Level Minneapolis Center
Wed 07:39:54 AM 44.1983 -90.0586 114° Southeast 511 588 35,000  Level Minneapolis Center
Wed 07:40:55 AM 44.1392 -89.8778 114° Southeast 513 590 35,000  Level Minneapolis Center
Wed 07:41:40 AM 44.1003 -89.7578 114° Southeast 513 590 35,000  Level Chicago Center
Wed 07:42:41 AM 44.0300 -89.5475 115° Southeast 513 590 35,000  Level Chicago Center
Wed 07:43:43 AM 43.9708 -89.3667 114° Southeast 514 592 35,000  Level Chicago Center
Wed 07:44:45 AM 43.9083 -89.1850 115° Southeast 519 597 35,000  Level Chicago Center
Wed 07:45:47 AM 43.8486 -89.0036 114° Southeast 516 594 35,000  Level Chicago Center
Wed 07:46:48 AM 43.7867 -88.8222 115° Southeast 519 597 35,000  Level Chicago Center
Wed 07:47:50 AM 43.7258 -88.6428 115° Southeast 514 592 35,000  Level Chicago Center
Wed 07:48:52 AM 43.6631 -88.4592 115° Southeast 518 596 35,000  Level Chicago Center
Wed 07:49:54 AM 43.5978 -88.2769 116° Southeast 520 598 35,000  Level Chicago Center
Wed 07:50:56 AM 43.5339 -88.0950 116° Southeast 520 598 35,000  Level Chicago Center
Wed 07:51:57 AM 43.4558 -87.8886 117° Southeast 518 596 35,000  Level Chicago Center
Wed 07:52:59 AM 43.3844 -87.7158 120° Southeast 518 596 35,000  Level Chicago Center
Wed 07:54:01 AM 43.3136 -87.5431 119° Southeast 518 596 35,000  Level Chicago Center
Wed 07:55:03 AM 43.2442 -87.3719 119° Southeast 514 592 35,000  Level Chicago Center
Wed 07:56:05 AM 43.1744 -87.2019 119° Southeast 515 593 35,000  Level Chicago Center
Wed 07:57:07 AM 43.1031 -87.0319 120° Southeast 517 595 35,000  Level Chicago Center
Wed 07:58:08 AM 43.0328 -86.8622 119° Southeast 517 595 35,000  Level Chicago Center
Wed 07:59:10 AM 42.9461 -86.6600 120° Southeast 518 596 35,000  Level Chicago Center
Wed 08:00:12 AM 42.8744 -86.4922 120° Southeast 517 595 35,000  Level Chicago Center
Wed 08:01:14 AM 42.8028 -86.3261 120° Southeast 516 594 35,000  Level Chicago Center
Wed 08:02:16 AM 42.7319 -86.1597 120° Southeast 516 594 35,000  Level Chicago Center
Wed 08:03:18 AM 42.6656 -85.9917 118° Southeast 513 590 35,000  Level Chicago Center
Wed 08:04:20 AM 42.5992 -85.7806 113° Southeast 513 590 35,000  Level Chicago Center
Wed 08:05:22 AM 42.5414 -85.6053 114° Southeast 514 592 35,000  Level Chicago Center
Wed 08:06:24 AM 42.4839 -85.4278 114° Southeast 516 594 35,000  Level Chicago Center
Wed 08:07:26 AM 42.4269 -85.2525 114° Southeast 514 592 35,000  Level Chicago Center
Wed 08:08:28 AM 42.3694 -85.0772 114° Southeast 513 590 35,000  Level Chicago Center
Wed 08:09:30 AM 42.3108 -84.9028 114° Southeast 512 589 35,000  Level Chicago Center
Wed 08:10:32 AM 42.2408 -84.6928 114° Southeast 513 590 35,000  Level Chicago Center
Wed 08:11:34 AM 42.1825 -84.5200 114° Southeast 511 588 35,000  Level Chicago Center
Wed 08:12:36 AM 42.1239 -84.3461 114° Southeast 511 588 35,000  Level Chicago Center
Wed 08:13:10 AM 42.0792 -84.2342 118° Southeast 510 587 35,000  Level Cleveland Center
Wed 08:14:10 AM 42.0197 -84.0631 115° Southeast 510 587 35,000  Level Cleveland Center
Wed 08:15:10 AM 41.9433 -83.8969 122° Southeast 515 593 35,000  Level Cleveland Center
Wed 08:16:10 AM 41.8622 -83.7394 125° Southeast 515 593 35,000  Level Cleveland Center
Wed 08:17:10 AM 41.7811 -83.5767 124° Southeast 520 598 35,000  Level Cleveland Center
Wed 08:18:10 AM 41.7017 -83.4200 124° Southeast 520 598 35,000  Level Cleveland Center
Wed 08:19:10 AM 41.6136 -83.2689 128° Southeast 520 598 35,000  Level Cleveland Center
Wed 08:20:10 AM 41.5375 -83.1297 126° Southeast 515 593 35,000  Level Cleveland Center
Wed 08:21:10 AM 41.4511 -82.9850 129° Southeast 515 593 35,000  Level Cleveland Center
Wed 08:22:10 AM 41.3586 -82.8211 127° Southeast 515 593 35,000  Level Cleveland Center
Wed 08:23:10 AM 41.2697 -82.6717 128° Southeast 510 587 35,000  Level Cleveland Center
Wed 08:24:10 AM 41.1828 -82.5200 127° Southeast 510 587 35,000  Level Cleveland Center
Wed 08:25:10 AM 41.0953 -82.3767 129° Southeast 510 587 35,000  Level Cleveland Center
Wed 08:26:10 AM 41.0081 -82.2258 127° Southeast 510 587 35,000  Level Cleveland Center
Wed 08:27:10 AM 40.9203 -82.0781 128° Southeast 515 593 35,000  Level Cleveland Center
Wed 08:28:10 AM 40.8325 -81.9278 128° Southeast 515 593 35,000  Level Cleveland Center
Wed 08:29:10 AM 40.7447 -81.7808 128° Southeast 520 598 35,000  Level Cleveland Center
Wed 08:30:10 AM 40.6586 -81.6342 128° Southeast 515 593 35,000  Level Cleveland Center
Wed 08:31:11 AM 40.5681 -81.4850 129° Southeast 520 598 35,000  Level Cleveland Center
Wed 08:32:10 AM 40.4817 -81.3392 128° Southeast 515 593 35,000  Level Cleveland Center
Wed 08:33:10 AM 40.3950 -81.1936 128° Southeast 515 593 35,000  Level Cleveland Center
Wed 08:34:10 AM 40.3039 -81.0486 129° Southeast 515 593 35,000  Level Cleveland Center
Wed 08:35:10 AM 40.2147 -80.9039 129° Southeast 515 593 35,000  Level Cleveland Center
Wed 08:36:10 AM 40.1275 -80.7622 129° Southeast 515 593 35,000  Level Cleveland Center
Wed 08:37:10 AM 40.0400 -80.6211 129° Southeast 510 587 35,000 -50 Level Cleveland Center
Wed 08:38:10 AM 39.9544 -80.4828 129° Southeast 499 574 34,900 -500 Descending Cleveland Center
Wed 08:39:10 AM 39.8667 -80.3425 129° Southeast 499 574 34,000 -950 Descending Cleveland Center
Wed 08:40:10 AM 39.7747 -80.1994 130° Southeast 499 574 33,000 -968 Descending Cleveland Center
Wed 08:42:16 AM 39.6008 -79.9144 128° Southeast 533 613 31,000 -930 Descending Washington Center
Wed 08:43:17 AM 39.5381 -79.7383 115° Southeast 538 619 30,100 -1,574 Descending Washington Center
Wed 08:44:18 AM 39.5028 -79.5533 104° East 531 611 27,800 -1,587 Descending Washington Center
Wed 08:45:18 AM 39.4714 -79.3636 102° East 537 618 26,900 -1,008 Descending Washington Center
Wed 08:46:17 AM 39.4339 -79.1572 103° East 553 636 25,800 -1,450 Descending Washington Center
Wed 08:47:18 AM 39.4053 -78.9947 103° East 510 587 24,000 -2,459 Descending Washington Center
Wed 08:48:19 AM 39.3761 -78.8431 104° East 461 531 20,800 -2,949 Descending Washington Center
Wed 08:49:16 AM 39.3506 -78.7022 103° East 424 488 18,200 -2,492 Descending Washington Center
Wed 08:50:17 AM 39.3303 -78.5942 104° East 406 467 15,900 -2,656 Descending Washington Center
Wed 08:51:18 AM 39.3028 -78.4400 103° East 375 432 12,800 -2,218 Descending Washington Center
Wed 08:52:16 AM 39.2681 -78.3233 111° Southeast 357 411 11,500 -1,119 Descending Washington Center
Wed 08:53:16 AM 39.2139 -78.2275 126° Southeast 341 392 10,600 -1,082 Descending Washington Center
Wed 08:54:18 AM 39.1658 -78.1347 124° Southeast 323 372 9,300 -780 Descending Washington Center
Wed 08:55:19 AM 39.1178 -78.0447 125° Southeast 312 359 9,000 -203 Descending Washington Center
Wed 08:56:16 AM 39.0675 -77.9550 126° Southeast 307 353 8,900 -508 Descending Washington Center
Wed 08:57:17 AM 39.0272 -77.8736 122° Southeast 307 353 8,000 -984 Descending Washington Center
Wed 08:58:18 AM 38.9769 -77.7786 124° Southeast 307 353 6,900 -958 Descending Washington Center
Wed 08:59:16 AM 38.9597 -77.6844 103° East 291 335 6,100 -574 Descending Washington Center
Wed 08:59:52 AM 38.9333 -77.6167 117° Southeast 287 330 6,000 -63 Descending Potomac TRACON
Wed 09:00:52 AM 38.8667 -77.5833 159° South 266 306 6,000 -474 Level Potomac TRACON
Wed 09:01:46 AM 38.8167 -77.5667 165° South 240 276 5,100 -1,053 Descending Potomac TRACON
Wed 09:02:46 AM 38.7500 -77.5500 169° South 242 278 4,000 -1,100 Descending Potomac TRACON

Login

Don't have an account? Register now (free) for customized features, flight alerts, and more!